sensor_id;sensor_type;location;lat;lon;timestamp;P1;durP1;ratioP1;P2;durP2;ratioP2
40611;SDS011;26317;44.894;20.286;2024-03-17T00:01:25;57.00;;;45.42;;
40611;SDS011;26317;44.894;20.286;2024-03-17T00:03:52;61.03;;;45.70;;
40611;SDS011;26317;44.894;20.286;2024-03-17T00:06:23;54.47;;;45.42;;
40611;SDS011;26317;44.894;20.286;2024-03-17T00:08:52;56.47;;;45.38;;
40611;SDS011;26317;44.894;20.286;2024-03-17T00:11:21;53.70;;;45.15;;
40611;SDS011;26317;44.894;20.286;2024-03-17T00:13:48;52.47;;;43.95;;
40611;SDS011;26317;44.894;20.286;2024-03-17T00:16:20;55.75;;;43.03;;
40611;SDS011;26317;44.894;20.286;2024-03-17T00:18:48;50.33;;;42.60;;
40611;SDS011;26317;44.894;20.286;2024-03-17T00:21:17;51.67;;;42.67;;
40611;SDS011;26317;44.894;20.286;2024-03-17T00:23:45;50.78;;;42.15;;
40611;SDS011;26317;44.894;20.286;2024-03-17T00:26:16;49.15;;;42.67;;
40611;SDS011;26317;44.894;20.286;2024-03-17T00:28:45;51.13;;;43.30;;
40611;SDS011;26317;44.894;20.286;2024-03-17T00:31:16;58.10;;;45.35;;
40611;SDS011;26317;44.894;20.286;2024-03-17T00:33:46;49.50;;;42.67;;
40611;SDS011;26317;44.894;20.286;2024-03-17T00:36:16;50.45;;;42.72;;
40611;SDS011;26317;44.894;20.286;2024-03-17T00:38:43;46.65;;;41.53;;
40611;SDS011;26317;44.894;20.286;2024-03-17T00:41:12;49.83;;;41.67;;
40611;SDS011;26317;44.894;20.286;2024-03-17T00:43:39;47.17;;;41.20;;
40611;SDS011;26317;44.894;20.286;2024-03-17T00:46:09;50.10;;;41.25;;
40611;SDS011;26317;44.894;20.286;2024-03-17T00:48:35;49.83;;;41.28;;
40611;SDS011;26317;44.894;20.286;2024-03-17T00:51:09;47.75;;;41.58;;
40611;SDS011;26317;44.894;20.286;2024-03-17T00:53:36;52.22;;;43.70;;
40611;SDS011;26317;44.894;20.286;2024-03-17T00:56:06;51.03;;;43.17;;
40611;SDS011;26317;44.894;20.286;2024-03-17T00:58:34;49.95;;;43.53;;
40611;SDS011;26317;44.894;20.286;2024-03-17T01:03:32;48.50;;;43.03;;
40611;SDS011;26317;44.894;20.286;2024-03-17T01:06:05;49.70;;;44.20;;
40611;SDS011;26317;44.894;20.286;2024-03-17T01:08:35;48.55;;;42.90;;
40611;SDS011;26317;44.894;20.286;2024-03-17T01:11:05;50.15;;;41.72;;
40611;SDS011;26317;44.894;20.286;2024-03-17T01:13:34;53.60;;;45.13;;
40611;SDS011;26317;44.894;20.286;2024-03-17T01:16:08;53.85;;;44.15;;
40611;SDS011;26317;44.894;20.286;2024-03-17T01:18:34;49.97;;;42.83;;
40611;SDS011;26317;44.894;20.286;2024-03-17T01:21:05;47.38;;;42.33;;
40611;SDS011;26317;44.894;20.286;2024-03-17T01:23:35;52.80;;;44.00;;
40611;SDS011;26317;44.894;20.286;2024-03-17T01:26:04;49.55;;;43.70;;
40611;SDS011;26317;44.894;20.286;2024-03-17T01:28:31;50.35;;;44.08;;
40611;SDS011;26317;44.894;20.286;2024-03-17T01:31:05;46.97;;;42.03;;
40611;SDS011;26317;44.894;20.286;2024-03-17T01:33:32;50.08;;;43.45;;
40611;SDS011;26317;44.894;20.286;2024-03-17T01:36:01;48.42;;;43.03;;
40611;SDS011;26317;44.894;20.286;2024-03-17T01:38:28;50.65;;;43.35;;
40611;SDS011;26317;44.894;20.286;2024-03-17T01:41:00;49.80;;;44.47;;
40611;SDS011;26317;44.894;20.286;2024-03-17T01:43:28;49.22;;;43.60;;
40611;SDS011;26317;44.894;20.286;2024-03-17T01:45:58;48.40;;;42.25;;
40611;SDS011;26317;44.894;20.286;2024-03-17T01:48:25;50.10;;;43.45;;
40611;SDS011;26317;44.894;20.286;2024-03-17T01:50:56;49.63;;;42.42;;
40611;SDS011;26317;44.894;20.286;2024-03-17T01:53:24;52.58;;;43.50;;
40611;SDS011;26317;44.894;20.286;2024-03-17T01:55:56;49.13;;;42.10;;
40611;SDS011;26317;44.894;20.286;2024-03-17T01:58:27;48.28;;;43.05;;
40611;SDS011;26317;44.894;20.286;2024-03-17T02:01:00;52.05;;;45.10;;
40611;SDS011;26317;44.894;20.286;2024-03-17T02:03:27;51.35;;;45.33;;
40611;SDS011;26317;44.894;20.286;2024-03-17T02:05:56;54.42;;;46.58;;
40611;SDS011;26317;44.894;20.286;2024-03-17T02:08:23;53.55;;;42.90;;
40611;SDS011;26317;44.894;20.286;2024-03-17T02:10:53;54.70;;;47.80;;
40611;SDS011;26317;44.894;20.286;2024-03-17T02:13:21;55.88;;;47.05;;
40611;SDS011;26317;44.894;20.286;2024-03-17T02:15:53;56.63;;;47.00;;
40611;SDS011;26317;44.894;20.286;2024-03-17T02:18:20;55.70;;;47.63;;
40611;SDS011;26317;44.894;20.286;2024-03-17T02:20:50;57.92;;;49.47;;
40611;SDS011;26317;44.894;20.286;2024-03-17T02:23:28;63.83;;;49.95;;
40611;SDS011;26317;44.894;20.286;2024-03-17T02:25:58;54.75;;;47.50;;
40611;SDS011;26317;44.894;20.286;2024-03-17T02:28:26;55.20;;;48.95;;
40611;SDS011;26317;44.894;20.286;2024-03-17T02:33:22;56.75;;;48.40;;
40611;SDS011;26317;44.894;20.286;2024-03-17T02:35:52;61.80;;;47.75;;
40611;SDS011;26317;44.894;20.286;2024-03-17T02:38:18;53.67;;;47.50;;
40611;SDS011;26317;44.894;20.286;2024-03-17T02:41:11;52.65;;;45.17;;
40611;SDS011;26317;44.894;20.286;2024-03-17T02:43:38;56.03;;;47.60;;
40611;SDS011;26317;44.894;20.286;2024-03-17T02:46:10;52.85;;;46.42;;
40611;SDS011;26317;44.894;20.286;2024-03-17T02:48:41;56.17;;;46.20;;
40611;SDS011;26317;44.894;20.286;2024-03-17T02:51:13;51.33;;;44.97;;
40611;SDS011;26317;44.894;20.286;2024-03-17T02:53:43;60.22;;;47.25;;
40611;SDS011;26317;44.894;20.286;2024-03-17T02:58:49;55.35;;;45.47;;
40611;SDS011;26317;44.894;20.286;2024-03-17T03:01:20;50.20;;;44.75;;
40611;SDS011;26317;44.894;20.286;2024-03-17T03:03:52;51.92;;;43.95;;
40611;SDS011;26317;44.894;20.286;2024-03-17T03:06:21;51.80;;;44.55;;
40611;SDS011;26317;44.894;20.286;2024-03-17T03:08:51;49.35;;;44.08;;
40611;SDS011;26317;44.894;20.286;2024-03-17T03:11:23;51.97;;;46.05;;
40611;SDS011;26317;44.894;20.286;2024-03-17T03:13:52;53.95;;;44.38;;
40611;SDS011;26317;44.894;20.286;2024-03-17T03:16:22;54.03;;;45.90;;
40611;SDS011;26317;44.894;20.286;2024-03-17T03:18:51;58.00;;;47.75;;
40611;SDS011;26317;44.894;20.286;2024-03-17T03:21:20;55.47;;;49.35;;
40611;SDS011;26317;44.894;20.286;2024-03-17T03:23:50;54.45;;;48.58;;
40611;SDS011;26317;44.894;20.286;2024-03-17T03:26:20;57.55;;;51.33;;
40611;SDS011;26317;44.894;20.286;2024-03-17T03:28:54;54.95;;;49.00;;
40611;SDS011;26317;44.894;20.286;2024-03-17T03:31:29;57.72;;;51.42;;
40611;SDS011;26317;44.894;20.286;2024-03-17T03:33:59;57.33;;;50.17;;
40611;SDS011;26317;44.894;20.286;2024-03-17T03:36:29;60.35;;;53.40;;
40611;SDS011;26317;44.894;20.286;2024-03-17T03:38:59;56.50;;;49.38;;
40611;SDS011;26317;44.894;20.286;2024-03-17T03:41:32;56.58;;;50.45;;
40611;SDS011;26317;44.894;20.286;2024-03-17T03:44:03;54.97;;;49.00;;
40611;SDS011;26317;44.894;20.286;2024-03-17T03:46:38;56.42;;;50.13;;
40611;SDS011;26317;44.894;20.286;2024-03-17T03:49:08;53.60;;;47.78;;
40611;SDS011;26317;44.894;20.286;2024-03-17T03:51:39;54.90;;;47.03;;
40611;SDS011;26317;44.894;20.286;2024-03-17T03:54:06;55.67;;;49.15;;
40611;SDS011;26317;44.894;20.286;2024-03-17T03:56:38;57.35;;;50.72;;
40611;SDS011;26317;44.894;20.286;2024-03-17T03:59:11;59.25;;;49.88;;
40611;SDS011;26317;44.894;20.286;2024-03-17T04:01:40;55.53;;;49.33;;
40611;SDS011;26317;44.894;20.286;2024-03-17T04:04:10;56.83;;;50.38;;
40611;SDS011;26317;44.894;20.286;2024-03-17T04:06:39;58.58;;;51.97;;
40611;SDS011;26317;44.894;20.286;2024-03-17T04:09:09;60.00;;;53.50;;
40611;SDS011;26317;44.894;20.286;2024-03-17T04:11:41;63.58;;;53.63;;
40611;SDS011;26317;44.894;20.286;2024-03-17T04:14:11;64.93;;;53.70;;
40611;SDS011;26317;44.894;20.286;2024-03-17T04:16:41;61.40;;;53.78;;
40611;SDS011;26317;44.894;20.286;2024-03-17T04:19:12;61.95;;;55.25;;
40611;SDS011;26317;44.894;20.286;2024-03-17T04:21:42;62.45;;;53.72;;
40611;SDS011;26317;44.894;20.286;2024-03-17T04:24:12;61.10;;;54.40;;
40611;SDS011;26317;44.894;20.286;2024-03-17T04:26:45;63.83;;;54.67;;
40611;SDS011;26317;44.894;20.286;2024-03-17T04:29:14;63.80;;;55.22;;
40611;SDS011;26317;44.894;20.286;2024-03-17T04:31:46;65.05;;;53.60;;
40611;SDS011;26317;44.894;20.286;2024-03-17T04:34:16;62.47;;;55.10;;
40611;SDS011;26317;44.894;20.286;2024-03-17T04:36:46;62.97;;;55.90;;
40611;SDS011;26317;44.894;20.286;2024-03-17T04:39:16;59.10;;;52.60;;
40611;SDS011;26317;44.894;20.286;2024-03-17T04:41:48;62.85;;;54.03;;
40611;SDS011;26317;44.894;20.286;2024-03-17T04:44:17;67.70;;;54.22;;
40611;SDS011;26317;44.894;20.286;2024-03-17T04:46:47;65.72;;;55.38;;
40611;SDS011;26317;44.894;20.286;2024-03-17T04:49:16;64.57;;;57.20;;
40611;SDS011;26317;44.894;20.286;2024-03-17T04:51:46;68.05;;;59.55;;
40611;SDS011;26317;44.894;20.286;2024-03-17T04:54:15;64.00;;;55.65;;
40611;SDS011;26317;44.894;20.286;2024-03-17T04:56:45;64.45;;;57.40;;
40611;SDS011;26317;44.894;20.286;2024-03-17T04:59:17;64.65;;;56.63;;
40611;SDS011;26317;44.894;20.286;2024-03-17T05:01:46;68.60;;;60.10;;
40611;SDS011;26317;44.894;20.286;2024-03-17T05:04:16;68.25;;;59.90;;
40611;SDS011;26317;44.894;20.286;2024-03-17T05:06:46;63.25;;;55.72;;
40611;SDS011;26317;44.894;20.286;2024-03-17T05:09:17;65.03;;;56.97;;
40611;SDS011;26317;44.894;20.286;2024-03-17T05:11:50;64.77;;;56.90;;
40611;SDS011;26317;44.894;20.286;2024-03-17T05:14:20;60.92;;;54.33;;
40611;SDS011;26317;44.894;20.286;2024-03-17T05:16:51;67.75;;;58.25;;
40611;SDS011;26317;44.894;20.286;2024-03-17T05:19:21;63.60;;;56.75;;
40611;SDS011;26317;44.894;20.286;2024-03-17T05:21:50;61.75;;;55.13;;
40611;SDS011;26317;44.894;20.286;2024-03-17T05:24:20;63.58;;;56.40;;
40611;SDS011;26317;44.894;20.286;2024-03-17T05:26:52;61.13;;;54.35;;
40611;SDS011;26317;44.894;20.286;2024-03-17T05:29:21;60.78;;;54.38;;
40611;SDS011;26317;44.894;20.286;2024-03-17T05:31:51;59.40;;;52.92;;
40611;SDS011;26317;44.894;20.286;2024-03-17T05:34:30;65.05;;;54.88;;
40611;SDS011;26317;44.894;20.286;2024-03-17T05:37:00;63.80;;;53.42;;
40611;SDS011;26317;44.894;20.286;2024-03-17T05:39:29;62.15;;;54.45;;
40611;SDS011;26317;44.894;20.286;2024-03-17T05:42:01;61.53;;;54.85;;
40611;SDS011;26317;44.894;20.286;2024-03-17T05:44:31;59.67;;;52.83;;
40611;SDS011;26317;44.894;20.286;2024-03-17T05:47:16;62.10;;;53.53;;
40611;SDS011;26317;44.894;20.286;2024-03-17T05:49:46;67.22;;;55.58;;
40611;SDS011;26317;44.894;20.286;2024-03-17T05:52:15;60.60;;;53.80;;
40611;SDS011;26317;44.894;20.286;2024-03-17T05:54:46;59.65;;;53.25;;
40611;SDS011;26317;44.894;20.286;2024-03-17T05:57:21;61.55;;;54.97;;
40611;SDS011;26317;44.894;20.286;2024-03-17T05:59:50;63.58;;;56.67;;
40611;SDS011;26317;44.894;20.286;2024-03-17T06:02:22;67.80;;;58.58;;
40611;SDS011;26317;44.894;20.286;2024-03-17T06:04:55;66.18;;;58.85;;
40611;SDS011;26317;44.894;20.286;2024-03-17T06:07:30;65.70;;;58.53;;
40611;SDS011;26317;44.894;20.286;2024-03-17T06:10:00;64.88;;;57.78;;
40611;SDS011;26317;44.894;20.286;2024-03-17T06:12:42;65.22;;;58.05;;
40611;SDS011;26317;44.894;20.286;2024-03-17T06:15:20;61.42;;;54.95;;
40611;SDS011;26317;44.894;20.286;2024-03-17T06:17:51;59.42;;;51.75;;
40611;SDS011;26317;44.894;20.286;2024-03-17T06:20:21;56.50;;;50.30;;
40611;SDS011;26317;44.894;20.286;2024-03-17T06:22:54;51.78;;;46.28;;
40611;SDS011;26317;44.894;20.286;2024-03-17T06:25:23;47.03;;;41.60;;
40611;SDS011;26317;44.894;20.286;2024-03-17T06:27:57;43.17;;;38.42;;
40611;SDS011;26317;44.894;20.286;2024-03-17T06:30:29;39.95;;;33.97;;
40611;SDS011;26317;44.894;20.286;2024-03-17T06:32:58;35.65;;;30.55;;
40611;SDS011;26317;44.894;20.286;2024-03-17T06:35:32;34.30;;;29.40;;
40611;SDS011;26317;44.894;20.286;2024-03-17T06:38:01;29.08;;;24.85;;
40611;SDS011;26317;44.894;20.286;2024-03-17T06:40:35;26.08;;;23.33;;
40611;SDS011;26317;44.894;20.286;2024-03-17T06:43:07;24.98;;;22.27;;
40611;SDS011;26317;44.894;20.286;2024-03-17T06:45:38;25.98;;;23.17;;
40611;SDS011;26317;44.894;20.286;2024-03-17T06:48:07;24.13;;;21.48;;
40611;SDS011;26317;44.894;20.286;2024-03-17T06:50:37;21.95;;;19.52;;
40611;SDS011;26317;44.894;20.286;2024-03-17T06:53:11;22.40;;;19.85;;
40611;SDS011;26317;44.894;20.286;2024-03-17T06:55:40;22.92;;;18.67;;
40611;SDS011;26317;44.894;20.286;2024-03-17T06:58:14;20.17;;;18.13;;
40611;SDS011;26317;44.894;20.286;2024-03-17T07:00:51;17.70;;;15.82;;
40611;SDS011;26317;44.894;20.286;2024-03-17T07:03:29;16.52;;;14.82;;
40611;SDS011;26317;44.894;20.286;2024-03-17T07:06:00;14.65;;;13.00;;
40611;SDS011;26317;44.894;20.286;2024-03-17T07:08:39;15.60;;;12.23;;
40611;SDS011;26317;44.894;20.286;2024-03-17T07:11:19;13.82;;;12.30;;
40611;SDS011;26317;44.894;20.286;2024-03-17T07:14:11;11.60;;;10.38;;
40611;SDS011;26317;44.894;20.286;2024-03-17T07:16:41;10.60;;;9.50;;
40611;SDS011;26317;44.894;20.286;2024-03-17T07:19:10;5.30;;;4.80;;
40611;SDS011;26317;44.894;20.286;2024-03-17T07:21:40;5.93;;;5.32;;
40611;SDS011;26317;44.894;20.286;2024-03-17T07:24:12;4.90;;;4.40;;
40611;SDS011;26317;44.894;20.286;2024-03-17T07:26:41;5.97;;;4.82;;
40611;SDS011;26317;44.894;20.286;2024-03-17T07:29:13;6.40;;;5.15;;
40611;SDS011;26317;44.894;20.286;2024-03-17T07:31:45;6.47;;;5.30;;
40611;SDS011;26317;44.894;20.286;2024-03-17T07:34:14;6.15;;;5.47;;
40611;SDS011;26317;44.894;20.286;2024-03-17T07:36:44;7.22;;;6.40;;
40611;SDS011;26317;44.894;20.286;2024-03-17T07:39:14;6.38;;;5.72;;
40611;SDS011;26317;44.894;20.286;2024-03-17T07:41:44;7.78;;;6.93;;
40611;SDS011;26317;44.894;20.286;2024-03-17T07:44:16;10.20;;;6.90;;
40611;SDS011;26317;44.894;20.286;2024-03-17T07:46:46;7.03;;;5.68;;
40611;SDS011;26317;44.894;20.286;2024-03-17T07:49:16;9.05;;;6.57;;
40611;SDS011;26317;44.894;20.286;2024-03-17T07:51:45;9.00;;;6.95;;
40611;SDS011;26317;44.894;20.286;2024-03-17T07:54:15;9.30;;;6.60;;
40611;SDS011;26317;44.894;20.286;2024-03-17T07:56:45;9.20;;;6.68;;
40611;SDS011;26317;44.894;20.286;2024-03-17T07:59:17;9.80;;;5.22;;
40611;SDS011;26317;44.894;20.286;2024-03-17T08:01:47;7.93;;;5.80;;
40611;SDS011;26317;44.894;20.286;2024-03-17T08:04:16;5.30;;;4.20;;
40611;SDS011;26317;44.894;20.286;2024-03-17T08:06:46;5.82;;;5.22;;
40611;SDS011;26317;44.894;20.286;2024-03-17T08:09:15;5.78;;;4.60;;
40611;SDS011;26317;44.894;20.286;2024-03-17T08:11:46;5.00;;;4.10;;
40611;SDS011;26317;44.894;20.286;2024-03-17T08:14:18;23.58;;;17.35;;
40611;SDS011;26317;44.894;20.286;2024-03-17T08:16:48;4.95;;;4.28;;
40611;SDS011;26317;44.894;20.286;2024-03-17T08:19:17;5.90;;;4.75;;
40611;SDS011;26317;44.894;20.286;2024-03-17T08:21:48;4.72;;;4.00;;
40611;SDS011;26317;44.894;20.286;2024-03-17T08:24:18;5.15;;;4.53;;
40611;SDS011;26317;44.894;20.286;2024-03-17T08:26:49;7.32;;;5.43;;
40611;SDS011;26317;44.894;20.286;2024-03-17T08:29:21;5.32;;;4.30;;
40611;SDS011;26317;44.894;20.286;2024-03-17T08:31:51;5.40;;;4.40;;
40611;SDS011;26317;44.894;20.286;2024-03-17T08:34:23;5.93;;;4.75;;
40611;SDS011;26317;44.894;20.286;2024-03-17T08:36:53;5.35;;;4.22;;
40611;SDS011;26317;44.894;20.286;2024-03-17T08:39:22;7.30;;;4.20;;
40611;SDS011;26317;44.894;20.286;2024-03-17T08:41:52;5.38;;;4.78;;
40611;SDS011;26317;44.894;20.286;2024-03-17T08:44:24;7.18;;;4.70;;
40611;SDS011;26317;44.894;20.286;2024-03-17T08:46:54;5.35;;;4.25;;
40611;SDS011;26317;44.894;20.286;2024-03-17T08:49:23;4.68;;;3.90;;
40611;SDS011;26317;44.894;20.286;2024-03-17T08:51:54;4.00;;;3.70;;
40611;SDS011;26317;44.894;20.286;2024-03-17T08:54:26;4.82;;;4.32;;
40611;SDS011;26317;44.894;20.286;2024-03-17T08:56:57;4.15;;;3.40;;
40611;SDS011;26317;44.894;20.286;2024-03-17T08:59:31;4.57;;;3.83;;
40611;SDS011;26317;44.894;20.286;2024-03-17T09:02:00;4.82;;;3.70;;
40611;SDS011;26317;44.894;20.286;2024-03-17T09:04:30;4.07;;;3.78;;
40611;SDS011;26317;44.894;20.286;2024-03-17T09:07:00;4.30;;;3.90;;
40611;SDS011;26317;44.894;20.286;2024-03-17T09:09:31;4.95;;;4.00;;
40611;SDS011;26317;44.894;20.286;2024-03-17T09:12:02;4.20;;;3.80;;
40611;SDS011;26317;44.894;20.286;2024-03-17T09:14:35;6.50;;;3.70;;
40611;SDS011;26317;44.894;20.286;2024-03-17T09:17:06;4.03;;;3.47;;
40611;SDS011;26317;44.894;20.286;2024-03-17T09:19:36;4.90;;;3.90;;
40611;SDS011;26317;44.894;20.286;2024-03-17T09:22:05;2.88;;;2.67;;
40611;SDS011;26317;44.894;20.286;2024-03-17T09:24:34;2.92;;;2.60;;
40611;SDS011;26317;44.894;20.286;2024-03-17T09:27:04;5.07;;;3.08;;
40611;SDS011;26317;44.894;20.286;2024-03-17T09:29:37;3.08;;;2.70;;
40611;SDS011;26317;44.894;20.286;2024-03-17T09:32:07;6.22;;;3.63;;
40611;SDS011;26317;44.894;20.286;2024-03-17T09:34:42;4.80;;;3.05;;
40611;SDS011;26317;44.894;20.286;2024-03-17T09:39:42;3.00;;;2.65;;
40611;SDS011;26317;44.894;20.286;2024-03-17T09:42:30;4.43;;;2.67;;
40611;SDS011;26317;44.894;20.286;2024-03-17T09:45:02;3.65;;;2.85;;
40611;SDS011;26317;44.894;20.286;2024-03-17T09:47:35;4.15;;;2.97;;
40611;SDS011;26317;44.894;20.286;2024-03-17T09:50:12;4.43;;;2.90;;
40611;SDS011;26317;44.894;20.286;2024-03-17T09:52:44;3.28;;;2.95;;
40611;SDS011;26317;44.894;20.286;2024-03-17T09:58:14;2.22;;;1.90;;
40611;SDS011;26317;44.894;20.286;2024-03-17T10:01:09;4.07;;;2.25;;
40611;SDS011;26317;44.894;20.286;2024-03-17T10:03:48;5.60;;;3.00;;
40611;SDS011;26317;44.894;20.286;2024-03-17T10:06:31;2.50;;;2.30;;
40611;SDS011;26317;44.894;20.286;2024-03-17T10:09:32;3.05;;;2.45;;
40611;SDS011;26317;44.894;20.286;2024-03-17T10:15:07;4.63;;;2.53;;
40611;SDS011;26317;44.894;20.286;2024-03-17T10:17:59;2.95;;;2.75;;
40611;SDS011;26317;44.894;20.286;2024-03-17T10:21:08;4.20;;;2.55;;
40611;SDS011;26317;44.894;20.286;2024-03-17T10:24:08;10.82;;;2.92;;
40611;SDS011;26317;44.894;20.286;2024-03-17T10:26:46;2.75;;;2.25;;
40611;SDS011;26317;44.894;20.286;2024-03-17T10:29:22;2.90;;;2.53;;
40611;SDS011;26317;44.894;20.286;2024-03-17T10:32:13;2.92;;;2.55;;
40611;SDS011;26317;44.894;20.286;2024-03-17T10:35:04;3.00;;;2.70;;
40611;SDS011;26317;44.894;20.286;2024-03-17T10:38:12;4.00;;;2.88;;
40611;SDS011;26317;44.894;20.286;2024-03-17T10:40:53;3.55;;;2.90;;
40611;SDS011;26317;44.894;20.286;2024-03-17T10:43:27;3.50;;;3.15;;
40611;SDS011;26317;44.894;20.286;2024-03-17T10:46:04;3.30;;;2.92;;
40611;SDS011;26317;44.894;20.286;2024-03-17T10:48:44;4.32;;;2.40;;
40611;SDS011;26317;44.894;20.286;2024-03-17T10:51:23;2.72;;;2.20;;
40611;SDS011;26317;44.894;20.286;2024-03-17T10:54:06;6.13;;;3.08;;
40611;SDS011;26317;44.894;20.286;2024-03-17T10:57:01;2.63;;;2.38;;
40611;SDS011;26317;44.894;20.286;2024-03-17T10:59:55;3.47;;;2.95;;
40611;SDS011;26317;44.894;20.286;2024-03-17T11:02:43;3.72;;;3.35;;
40611;SDS011;26317;44.894;20.286;2024-03-17T11:05:41;4.68;;;3.03;;
40611;SDS011;26317;44.894;20.286;2024-03-17T11:08:35;3.45;;;3.15;;
40611;SDS011;26317;44.894;20.286;2024-03-17T11:11:38;3.15;;;2.85;;
40611;SDS011;26317;44.894;20.286;2024-03-17T11:14:16;4.05;;;3.60;;
40611;SDS011;26317;44.894;20.286;2024-03-17T11:16:52;4.68;;;2.97;;
40611;SDS011;26317;44.894;20.286;2024-03-17T11:19:28;4.78;;;3.97;;
40611;SDS011;26317;44.894;20.286;2024-03-17T11:28:10;4.32;;;3.80;;
40611;SDS011;26317;44.894;20.286;2024-03-17T11:31:05;3.40;;;3.10;;
40611;SDS011;26317;44.894;20.286;2024-03-17T11:34:02;4.13;;;3.72;;
40611;SDS011;26317;44.894;20.286;2024-03-17T11:36:40;6.80;;;3.97;;
40611;SDS011;26317;44.894;20.286;2024-03-17T11:39:38;4.88;;;4.05;;
40611;SDS011;26317;44.894;20.286;2024-03-17T11:42:33;6.45;;;4.38;;
40611;SDS011;26317;44.894;20.286;2024-03-17T11:45:15;4.05;;;3.60;;
40611;SDS011;26317;44.894;20.286;2024-03-17T11:47:47;3.75;;;3.45;;
40611;SDS011;26317;44.894;20.286;2024-03-17T11:50:40;4.90;;;4.38;;
40611;SDS011;26317;44.894;20.286;2024-03-17T11:53:14;4.82;;;4.05;;
40611;SDS011;26317;44.894;20.286;2024-03-17T11:58:25;4.15;;;3.75;;
40611;SDS011;26317;44.894;20.286;2024-03-17T12:01:15;3.75;;;3.45;;
40611;SDS011;26317;44.894;20.286;2024-03-17T12:03:47;4.10;;;3.15;;
40611;SDS011;26317;44.894;20.286;2024-03-17T12:06:28;4.65;;;3.97;;
40611;SDS011;26317;44.894;20.286;2024-03-17T12:09:10;4.07;;;3.53;;
40611;SDS011;26317;44.894;20.286;2024-03-17T12:11:57;4.40;;;3.35;;
40611;SDS011;26317;44.894;20.286;2024-03-17T12:14:29;3.80;;;3.50;;
40611;SDS011;26317;44.894;20.286;2024-03-17T12:17:20;6.97;;;3.88;;
40611;SDS011;26317;44.894;20.286;2024-03-17T12:19:51;4.93;;;4.50;;
40611;SDS011;26317;44.894;20.286;2024-03-17T12:22:28;7.25;;;3.30;;
40611;SDS011;26317;44.894;20.286;2024-03-17T12:25:05;13.52;;;4.72;;
40611;SDS011;26317;44.894;20.286;2024-03-17T12:28:05;5.33;;;3.83;;
40611;SDS011;26317;44.894;20.286;2024-03-17T12:30:47;4.85;;;4.18;;
40611;SDS011;26317;44.894;20.286;2024-03-17T12:33:24;8.90;;;4.60;;
40611;SDS011;26317;44.894;20.286;2024-03-17T12:36:05;5.60;;;3.75;;
40611;SDS011;26317;44.894;20.286;2024-03-17T12:38:42;5.03;;;4.40;;
40611;SDS011;26317;44.894;20.286;2024-03-17T12:41:18;4.65;;;4.15;;
40611;SDS011;26317;44.894;20.286;2024-03-17T12:43:51;5.97;;;5.03;;
40611;SDS011;26317;44.894;20.286;2024-03-17T12:46:21;15.23;;;13.60;;
40611;SDS011;26317;44.894;20.286;2024-03-17T12:49:01;5.47;;;4.72;;
40611;SDS011;26317;44.894;20.286;2024-03-17T12:51:38;7.32;;;4.72;;
40611;SDS011;26317;44.894;20.286;2024-03-17T12:54:13;4.68;;;4.22;;
40611;SDS011;26317;44.894;20.286;2024-03-17T12:56:47;6.55;;;3.90;;
40611;SDS011;26317;44.894;20.286;2024-03-17T12:59:43;4.70;;;3.72;;
40611;SDS011;26317;44.894;20.286;2024-03-17T13:02:30;4.43;;;2.70;;
40611;SDS011;26317;44.894;20.286;2024-03-17T13:05:14;4.57;;;3.67;;
40611;SDS011;26317;44.894;20.286;2024-03-17T13:07:51;5.55;;;2.95;;
40611;SDS011;26317;44.894;20.286;2024-03-17T13:10:25;3.20;;;2.90;;
40611;SDS011;26317;44.894;20.286;2024-03-17T13:15:47;6.07;;;3.35;;
40611;SDS011;26317;44.894;20.286;2024-03-17T13:18:20;5.15;;;3.75;;
40611;SDS011;26317;44.894;20.286;2024-03-17T13:21:04;5.80;;;3.92;;
40611;SDS011;26317;44.894;20.286;2024-03-17T13:23:37;4.97;;;3.63;;
40611;SDS011;26317;44.894;20.286;2024-03-17T13:26:13;3.50;;;2.80;;
40611;SDS011;26317;44.894;20.286;2024-03-17T13:28:49;3.47;;;2.58;;
40611;SDS011;26317;44.894;20.286;2024-03-17T13:31:28;2.33;;;2.03;;
40611;SDS011;26317;44.894;20.286;2024-03-17T13:34:07;7.25;;;4.18;;
40611;SDS011;26317;44.894;20.286;2024-03-17T13:36:41;4.43;;;3.10;;
40611;SDS011;26317;44.894;20.286;2024-03-17T13:39:13;3.65;;;2.40;;
40611;SDS011;26317;44.894;20.286;2024-03-17T13:41:50;3.22;;;2.72;;
40611;SDS011;26317;44.894;20.286;2024-03-17T13:47:27;4.60;;;3.47;;
40611;SDS011;26317;44.894;20.286;2024-03-17T13:50:01;3.35;;;2.78;;
40611;SDS011;26317;44.894;20.286;2024-03-17T13:52:40;3.90;;;3.22;;
40611;SDS011;26317;44.894;20.286;2024-03-17T13:55:19;3.70;;;2.53;;
40611;SDS011;26317;44.894;20.286;2024-03-17T13:57:51;3.50;;;2.70;;
40611;SDS011;26317;44.894;20.286;2024-03-17T14:03:03;3.00;;;2.60;;
40611;SDS011;26317;44.894;20.286;2024-03-17T14:05:43;2.83;;;2.60;;
40611;SDS011;26317;44.894;20.286;2024-03-17T14:08:21;4.45;;;2.65;;
40611;SDS011;26317;44.894;20.286;2024-03-17T14:10:58;2.58;;;2.35;;
40611;SDS011;26317;44.894;20.286;2024-03-17T14:13:33;3.33;;;2.53;;
40611;SDS011;26317;44.894;20.286;2024-03-17T14:16:08;4.50;;;2.50;;
40611;SDS011;26317;44.894;20.286;2024-03-17T14:18:41;4.47;;;2.88;;
40611;SDS011;26317;44.894;20.286;2024-03-17T14:21:18;3.45;;;2.45;;
40611;SDS011;26317;44.894;20.286;2024-03-17T14:26:40;6.53;;;2.90;;
40611;SDS011;26317;44.894;20.286;2024-03-17T14:31:52;4.80;;;3.00;;
40611;SDS011;26317;44.894;20.286;2024-03-17T14:37:06;6.05;;;4.30;;
40611;SDS011;26317;44.894;20.286;2024-03-17T14:39:45;2.85;;;2.55;;
40611;SDS011;26317;44.894;20.286;2024-03-17T14:42:26;4.00;;;2.53;;
40611;SDS011;26317;44.894;20.286;2024-03-17T14:45:04;3.85;;;2.30;;
40611;SDS011;26317;44.894;20.286;2024-03-17T14:47:40;2.85;;;2.00;;
40611;SDS011;26317;44.894;20.286;2024-03-17T14:50:18;2.95;;;1.88;;
40611;SDS011;26317;44.894;20.286;2024-03-17T14:52:53;2.92;;;2.20;;
40611;SDS011;26317;44.894;20.286;2024-03-17T14:55:33;3.15;;;1.90;;
40611;SDS011;26317;44.894;20.286;2024-03-17T14:58:03;4.75;;;3.13;;
40611;SDS011;26317;44.894;20.286;2024-03-17T15:00:41;3.90;;;3.13;;
40611;SDS011;26317;44.894;20.286;2024-03-17T15:03:19;3.30;;;2.28;;
40611;SDS011;26317;44.894;20.286;2024-03-17T15:05:50;3.40;;;2.60;;
40611;SDS011;26317;44.894;20.286;2024-03-17T15:08:29;7.65;;;4.72;;
40611;SDS011;26317;44.894;20.286;2024-03-17T15:11:08;4.80;;;2.45;;
40611;SDS011;26317;44.894;20.286;2024-03-17T15:13:42;5.18;;;2.95;;
40611;SDS011;26317;44.894;20.286;2024-03-17T15:16:16;6.03;;;3.08;;
40611;SDS011;26317;44.894;20.286;2024-03-17T15:18:48;4.35;;;2.67;;
40611;SDS011;26317;44.894;20.286;2024-03-17T15:21:25;4.40;;;2.63;;
40611;SDS011;26317;44.894;20.286;2024-03-17T15:24:02;4.28;;;2.65;;
40611;SDS011;26317;44.894;20.286;2024-03-17T15:26:47;5.43;;;3.42;;
40611;SDS011;26317;44.894;20.286;2024-03-17T15:29:22;5.70;;;3.45;;
40611;SDS011;26317;44.894;20.286;2024-03-17T15:31:57;4.40;;;2.88;;
40611;SDS011;26317;44.894;20.286;2024-03-17T15:34:33;5.03;;;3.50;;
40611;SDS011;26317;44.894;20.286;2024-03-17T15:37:09;2.85;;;2.22;;
40611;SDS011;26317;44.894;20.286;2024-03-17T15:39:45;5.18;;;2.88;;
40611;SDS011;26317;44.894;20.286;2024-03-17T15:42:24;3.05;;;2.17;;